TAF Text Data
IDs:
Format:
Raw Decoded Include METAR

Data at: 1319 UTC 19 Feb 2020

METAR for:KMSP (Minneapolis-St Paul, MN, US)
Text:KMSP 191253Z 29004KT 10SM FEW095 M17/M22 A3064 RMK AO2 SLP397 T11721222
Temperature:-17.2°C ( 1°F)
Dewpoint:-22.2°C ( -8°F) [RH = 65%]
Pressure (altimeter):30.64 inches Hg (1037.7 mb) [Sea level pressure: 1039.7 mb]
Winds:from the WNW (290 degrees) at 5 MPH (4 knots; 2.1 m/s)
Visibility:10 or more sm (16+ km)
Ceiling:at least 12,000 feet AGL
Clouds: few clouds at 9500 feet AGL

TAF for:KMSP (Minneapolis-St Paul, MN, US) issued at 1123 UTC 19 Feb 2020
Text:KMSP 191123Z 1912/2018 31007KT P6SM BKN090
Forecast period:1200 to 1700 UTC 19 February 2020
Forecast type:FROM: standard forecast or significant change
Winds:from the NW (310 degrees) at 8 MPH (7 knots; 3.6 m/s)
Visibility:6 or more sm (10+ km)
Ceiling:9000 feet AGL
Clouds: broken clouds at 9000 feet AGL
Text:FM191700 30005KT P6SM SKC
Forecast period:1700 UTC 19 February 2020 to 1800 UTC 20 February 2020
Forecast type:FROM: standard forecast or significant change
Winds:from the WNW (300 degrees) at 6 MPH (5 knots; 2.6 m/s)
Visibility:6 or more sm (10+ km)
Ceiling:at least 12,000 feet AGL
Clouds:clear skies